Terminal Aerodrome Forecast
Issued by NWS Amarillo, TX

Home | Current Version | Previous Version | Text Only | Print | Product List | Glossary On
Versions: 1 2 3 4 5 6 7 8 9 10 11 12 13 14 15 16 17 18 19 20 21 22 23 24 25
000
FTUS44 KAMA 181529 AAA
TAFDHT
TAF AMD
KDHT 181529Z 1815/1912 21008KT P6SM BKN015 OVC025
      TEMPO 1815/1818 SCT015
     FM181800 20011KT P6SM SCT200
     FM190000 19008KT P6SM FEW200
     FM190600 23008KT P6SM SKC=

USA.gov is the U.S. government's official web portal to all federal, state and local government web resources and services.